createdAt,value
2022-11-23T00:01:21.134Z,93611.09
2022-11-23T00:03:49.642Z,93620.00
2022-11-23T00:06:17.128Z,93615.91
2022-11-23T00:08:44.413Z,93618.00
2022-11-23T00:11:11.500Z,93612.16
2022-11-23T00:13:40.446Z,93602.31
2022-11-23T00:16:08.136Z,93609.59
2022-11-23T00:18:34.802Z,93616.69
2022-11-23T00:21:06.359Z,93618.41
2022-11-23T00:23:32.770Z,93614.03
2022-11-23T00:25:59.137Z,93610.97
2022-11-23T00:28:25.510Z,93621.47
2022-11-23T00:30:51.882Z,93610.84
2022-11-23T00:33:18.608Z,93609.03
2022-11-23T00:35:45.352Z,93618.84
2022-11-23T00:38:12.161Z,93612.38
2022-11-23T00:40:38.709Z,93619.56
2022-11-23T00:43:05.180Z,93608.53
2022-11-23T00:45:31.638Z,93611.41
2022-11-23T00:47:58.046Z,93626.38
2022-11-23T00:50:24.426Z,93622.81
2022-11-23T00:52:50.807Z,93615.63
2022-11-23T00:55:17.303Z,93609.38
2022-11-23T00:57:43.664Z,93612.53
2022-11-23T01:00:12.472Z,93609.47
2022-11-23T01:02:38.859Z,93610.34
2022-11-23T01:05:05.525Z,93602.06
2022-11-23T01:07:32.121Z,93616.09
2022-11-23T01:09:58.573Z,93616.25
2022-11-23T01:12:24.957Z,93608.44
2022-11-23T01:14:53.872Z,93626.03
2022-11-23T01:17:20.332Z,93624.53
2022-11-23T01:19:46.865Z,93618.84
2022-11-23T01:22:13.221Z,93620.22
2022-11-23T01:24:39.604Z,93614.84
2022-11-23T01:27:05.966Z,93620.22
2022-11-23T01:29:32.844Z,93624.69
2022-11-23T01:31:59.427Z,93629.94
2022-11-23T01:34:25.835Z,93617.47
2022-11-23T01:36:52.253Z,93632.56
2022-11-23T01:39:18.618Z,93631.75
2022-11-23T01:41:46.491Z,93637.34
2022-11-23T01:44:41.351Z,93633.59
2022-11-23T01:47:08.964Z,93630.59
2022-11-23T01:49:42.715Z,93635.84
2022-11-23T01:52:20.075Z,93630.97
2022-11-23T01:54:49.967Z,93642.81
2022-11-23T01:57:28.353Z,93630.97
2022-11-23T01:59:55.109Z,93639.88
2022-11-23T02:02:21.594Z,93642.25
2022-11-23T02:04:51.474Z,93624.19
2022-11-23T02:07:19.272Z,93637.00
2022-11-23T02:09:46.881Z,93636.22
2022-11-23T02:12:14.655Z,93632.56
2022-11-23T02:14:42.093Z,93624.78
2022-11-23T02:17:08.954Z,93636.22
2022-11-23T02:19:50.596Z,93624.44
2022-11-23T02:22:39.558Z,93618.63
2022-11-23T02:25:14.430Z,93626.50
2022-11-23T02:27:46.816Z,93619.44
2022-11-23T02:30:13.826Z,93613.38
2022-11-23T02:32:40.725Z,93624.53
2022-11-23T02:35:07.449Z,93622.84
2022-11-23T02:37:33.855Z,93625.56
2022-11-23T02:40:02.976Z,93627.53
2022-11-23T02:42:30.914Z,93614.28
2022-11-23T02:45:12.875Z,93608.78
2022-11-23T02:47:39.229Z,93624.22
2022-11-23T02:50:05.995Z,93619.09
2022-11-23T02:52:32.392Z,93623.88
2022-11-23T02:54:58.795Z,93616.25
2022-11-23T02:57:25.159Z,93630.16
2022-11-23T02:59:51.528Z,93612.69
2022-11-23T03:02:17.900Z,93628.34
2022-11-23T03:04:44.311Z,93623.09
2022-11-23T03:07:10.747Z,93623.66
2022-11-23T03:09:37.128Z,93620.56
2022-11-23T03:12:03.759Z,93625.47
2022-11-23T03:14:30.192Z,93629.38
2022-11-23T03:16:56.610Z,93631.75
2022-11-23T03:19:22.974Z,93617.94
2022-11-23T03:21:49.350Z,93623.19
2022-11-23T03:24:17.273Z,93637.34
2022-11-23T03:26:43.785Z,93638.03
2022-11-23T03:29:10.225Z,93637.00
2022-11-23T03:31:36.602Z,93627.59
2022-11-23T03:34:03.009Z,93631.75
2022-11-23T03:36:29.376Z,93639.16
2022-11-23T03:38:55.754Z,93637.00
2022-11-23T03:41:22.173Z,93636.22
2022-11-23T03:43:48.570Z,93634.16
2022-11-23T03:46:14.942Z,93629.94
2022-11-23T03:48:41.291Z,93634.38
2022-11-23T03:51:07.669Z,93622.59
2022-11-23T03:53:34.043Z,93623.09
2022-11-23T03:56:00.521Z,93611.69
2022-11-23T03:58:26.884Z,93618.06
2022-11-23T04:00:55.414Z,93626.75
2022-11-23T04:03:21.835Z,93623.09
2022-11-23T04:05:48.233Z,93618.84
2022-11-23T04:08:14.623Z,93622.06
2022-11-23T04:10:40.994Z,93618.97
2022-11-23T04:13:07.375Z,93611.66
2022-11-23T04:15:33.787Z,93625.56
2022-11-23T04:18:00.277Z,93611.88
2022-11-23T04:20:27.673Z,93616.56
2022-11-23T04:22:54.111Z,93618.84
2022-11-23T04:25:20.512Z,93615.19
2022-11-23T04:27:46.890Z,93604.81
2022-11-23T04:30:13.682Z,93610.38
2022-11-23T04:32:40.062Z,93609.81
2022-11-23T04:35:06.700Z,93616.56
2022-11-23T04:37:33.167Z,93618.72
2022-11-23T04:39:59.522Z,93596.56
2022-11-23T04:42:25.904Z,93611.41
2022-11-23T04:44:52.542Z,93612.81
2022-11-23T04:47:18.903Z,93596.56
2022-11-23T04:49:45.300Z,93617.47
2022-11-23T04:52:12.330Z,93615.88
2022-11-23T04:54:38.702Z,93614.03
2022-11-23T04:57:05.132Z,93616.09
2022-11-23T04:59:31.799Z,93609.81
2022-11-23T05:01:58.477Z,93603.78
2022-11-23T05:04:24.864Z,93593.63
2022-11-23T05:06:51.409Z,93593.63
2022-11-23T05:09:18.229Z,93590.19
2022-11-23T05:11:44.748Z,93588.69
2022-11-23T05:14:11.149Z,93590.66
2022-11-23T05:16:37.544Z,93593.38
2022-11-23T05:19:03.936Z,93590.53
2022-11-23T05:21:30.352Z,93595.31
2022-11-23T05:23:56.723Z,93575.47
2022-11-23T05:26:23.081Z,93580.03
2022-11-23T05:28:49.465Z,93571.91
2022-11-23T05:31:15.841Z,93575.34
2022-11-23T05:33:42.274Z,93566.56
2022-11-23T05:36:09.290Z,93569.28
2022-11-23T05:38:35.837Z,93579.00
2022-11-23T05:41:02.236Z,93580.59
2022-11-23T05:43:28.682Z,93582.66
2022-11-23T05:45:55.065Z,93584.00
2022-11-23T05:48:21.434Z,93577.72
2022-11-23T05:50:50.454Z,93588.47
2022-11-23T05:53:16.876Z,93571.94
2022-11-23T05:55:43.549Z,93580.25
2022-11-23T05:58:10.067Z,93577.16
2022-11-23T06:00:36.496Z,93581.84
2022-11-23T06:03:03.497Z,93574.44
2022-11-23T06:05:30.206Z,93579.13
2022-11-23T06:07:56.732Z,93578.91
2022-11-23T06:10:23.204Z,93578.31
2022-11-23T06:12:50.075Z,93562.94
2022-11-23T06:15:16.914Z,93568.28
2022-11-23T06:17:43.285Z,93580.72
2022-11-23T06:20:10.075Z,93567.97
2022-11-23T06:22:36.443Z,93568.75
2022-11-23T06:25:02.882Z,93577.44
2022-11-23T06:27:29.249Z,93564.44
2022-11-23T06:29:55.621Z,93576.41
2022-11-23T06:32:22.007Z,93575.13
2022-11-23T06:34:48.384Z,93580.72
2022-11-23T06:37:15.004Z,93583.31
2022-11-23T06:39:41.619Z,93571.69
2022-11-23T06:42:36.649Z,93584.78
2022-11-23T06:44:54.400Z,93577.78
2022-11-23T06:47:25.701Z,93586.22
2022-11-23T06:49:52.886Z,93575.41
2022-11-23T06:52:19.285Z,93582.91
2022-11-23T06:54:46.165Z,93581.56
2022-11-23T06:57:12.560Z,93592.06
2022-11-23T06:59:44.298Z,93591.25
2022-11-23T07:02:11.945Z,93593.88
2022-11-23T07:04:38.361Z,93597.75
2022-11-23T07:07:04.871Z,93600.06
2022-11-23T07:09:31.581Z,93599.81
2022-11-23T07:11:58.167Z,93599.59
2022-11-23T07:14:24.565Z,93607.69
2022-11-23T07:16:51.431Z,93606.31
2022-11-23T07:19:17.814Z,93615.19
2022-11-23T07:21:45.249Z,93620.44
2022-11-23T07:24:11.705Z,93621.28
2022-11-23T07:26:38.066Z,93625.41
2022-11-23T07:29:04.553Z,93633.72
2022-11-23T07:31:31.082Z,93631.75
2022-11-23T07:33:57.579Z,93633.69
2022-11-23T07:36:24.080Z,93629.13
2022-11-23T07:38:50.497Z,93631.22
2022-11-23T07:41:16.916Z,93632.66
2022-11-23T07:43:43.305Z,93638.47
2022-11-23T07:46:09.735Z,93643.72
2022-11-23T07:48:36.693Z,93648.38
2022-11-23T07:51:03.517Z,93630.22
2022-11-23T07:53:29.946Z,93634.97
2022-11-23T07:55:59.246Z,93650.94
2022-11-23T07:58:25.708Z,93649.56
2022-11-23T08:00:52.508Z,93658.25
2022-11-23T08:03:27.829Z,93657.53
2022-11-23T08:05:55.744Z,93642.84
2022-11-23T08:08:22.550Z,93649.69
2022-11-23T08:10:53.480Z,93669.19
2022-11-23T08:13:21.791Z,93653.69
2022-11-23T08:15:53.779Z,93660.88
2022-11-23T08:18:21.450Z,93660.63
2022-11-23T08:20:47.927Z,93655.25
2022-11-23T08:23:14.303Z,93667.47
2022-11-23T08:25:40.825Z,93662.13
2022-11-23T08:28:07.293Z,93655.72
2022-11-23T08:30:35.128Z,93656.19
2022-11-23T08:33:08.937Z,93641.81
2022-11-23T08:35:39.479Z,93668.06
2022-11-23T08:38:06.893Z,93676.72
2022-11-23T08:40:33.866Z,93666.00
2022-11-23T08:43:00.287Z,93672.72
2022-11-23T08:45:26.761Z,93668.50
2022-11-23T08:47:53.254Z,93670.53
2022-11-23T08:50:20.685Z,93659.09
2022-11-23T08:52:47.306Z,93653.53
2022-11-23T08:55:13.918Z,93650.22
2022-11-23T08:57:40.305Z,93652.69
2022-11-23T09:00:07.445Z,93646.84
2022-11-23T09:02:33.818Z,93651.09
2022-11-23T09:05:00.820Z,93652.09
2022-11-23T09:07:27.472Z,93641.66
2022-11-23T09:09:53.941Z,93642.50
2022-11-23T09:12:20.359Z,93638.88
2022-11-23T09:14:46.731Z,93641.88
2022-11-23T09:17:13.219Z,93632.25
2022-11-23T09:19:39.605Z,93639.16
2022-11-23T09:22:06.074Z,93621.72
2022-11-23T09:24:32.887Z,93624.09
2022-11-23T09:26:59.560Z,93639.13
2022-11-23T09:29:26.599Z,93644.44
2022-11-23T09:31:53.020Z,93647.03
2022-11-23T09:34:19.598Z,93636.00
2022-11-23T09:36:46.374Z,93628.16
2022-11-23T09:39:12.861Z,93619.25
2022-11-23T09:42:03.692Z,93632.72
2022-11-23T09:44:39.149Z,93635.50
2022-11-23T09:47:20.759Z,93630.34
2022-11-23T09:50:17.043Z,93636.22
2022-11-23T09:52:47.995Z,93642.97
2022-11-23T09:55:36.520Z,93629.69
2022-11-23T09:58:05.878Z,93607.50
2022-11-23T10:00:43.717Z,93623.22
2022-11-23T10:03:15.691Z,93622.53
2022-11-23T10:05:50.537Z,93624.56
2022-11-23T10:08:41.313Z,93607.28
2022-11-23T10:11:24.751Z,93605.72
2022-11-23T10:14:13.597Z,93615.81
2022-11-23T10:17:11.718Z,93619.28
2022-11-23T10:20:09.310Z,93622.31
2022-11-23T10:22:44.932Z,93602.16
2022-11-23T10:25:17.372Z,93600.88
2022-11-23T10:27:47.125Z,93596.56
2022-11-23T10:30:16.790Z,93596.19
2022-11-23T10:32:45.892Z,93592.13
2022-11-23T10:35:18.112Z,93564.59
2022-11-23T10:37:44.520Z,93567.25
2022-11-23T10:40:31.414Z,93557.63
2022-11-23T10:43:01.452Z,93568.56
2022-11-23T10:45:29.456Z,93570.50
2022-11-23T10:48:00.508Z,93573.00
2022-11-23T10:50:37.587Z,93580.00
2022-11-23T10:53:10.005Z,93576.31
2022-11-23T10:55:47.796Z,93581.91
2022-11-23T10:58:26.268Z,93578.56
2022-11-23T11:01:04.563Z,93568.78
2022-11-23T11:03:33.745Z,93564.97
2022-11-23T11:06:10.257Z,93564.81
2022-11-23T11:08:56.680Z,93574.38
2022-11-23T11:11:28.454Z,93567.81
2022-11-23T11:14:14.784Z,93561.97
2022-11-23T11:16:50.162Z,93556.81
2022-11-23T11:19:31.001Z,93554.19
2022-11-23T11:21:59.381Z,93554.91
2022-11-23T11:24:37.797Z,93556.22
2022-11-23T11:27:12.501Z,93553.38
2022-11-23T11:29:48.494Z,93559.38
2022-11-23T11:32:26.783Z,93559.81
2022-11-23T11:35:34.922Z,93556.69
2022-11-23T11:38:13.821Z,93555.53
2022-11-23T11:40:51.884Z,93559.38
2022-11-23T11:43:38.885Z,93554.75
2022-11-23T11:46:33.017Z,93562.13
2022-11-23T11:49:21.085Z,93553.31
2022-11-23T11:51:55.426Z,93551.91
2022-11-23T11:54:51.942Z,93540.75
2022-11-23T11:57:47.992Z,93537.81
2022-11-23T12:00:18.414Z,93529.72
2022-11-23T12:03:12.282Z,93530.34
2022-11-23T12:05:49.992Z,93518.78
2022-11-23T12:08:22.501Z,93515.59
2022-11-23T12:10:50.634Z,93518.41
2022-11-23T12:13:20.480Z,93517.38
2022-11-23T12:15:54.833Z,93513.81
2022-11-23T12:18:24.185Z,93519.25
2022-11-23T12:21:29.617Z,93520.00
2022-11-23T12:24:21.056Z,93521.47
2022-11-23T12:27:05.787Z,93528.56
2022-11-23T12:29:46.812Z,93528.63
2022-11-23T12:32:32.637Z,93527.28
2022-11-23T12:35:14.120Z,93515.34
2022-11-23T12:37:49.539Z,93524.16
2022-11-23T12:40:25.116Z,93522.56
2022-11-23T12:43:16.727Z,93529.44
2022-11-23T12:45:54.055Z,93520.44
2022-11-23T12:49:05.366Z,93523.00
2022-11-23T12:51:40.790Z,93521.91
2022-11-23T12:54:16.067Z,93523.97
2022-11-23T12:57:10.559Z,93522.63
2022-11-23T12:59:46.861Z,93532.34
2022-11-23T13:02:40.528Z,93521.03
2022-11-23T13:05:43.276Z,93514.91
2022-11-23T13:08:38.549Z,93506.84
2022-11-23T13:11:34.276Z,93500.78
2022-11-23T13:14:15.877Z,93498.69
2022-11-23T13:17:18.875Z,93506.84
2022-11-23T13:19:51.153Z,93513.03
2022-11-23T13:22:23.431Z,93508.38
2022-11-23T13:25:26.514Z,93506.84
2022-11-23T13:27:53.049Z,93502.69
2022-11-23T13:31:13.492Z,93512.03
2022-11-23T13:33:16.598Z,93519.13
2022-11-23T13:35:42.970Z,93515.41
2022-11-23T13:38:23.590Z,93515.69
2022-11-23T13:40:50.049Z,93519.75
2022-11-23T13:43:21.192Z,93519.78
2022-11-23T13:46:07.568Z,93524.88
2022-11-23T13:48:59.468Z,93530.53
2022-11-23T13:51:32.008Z,93514.88
2022-11-23T13:54:05.275Z,93512.28
2022-11-23T13:56:44.321Z,93515.22
2022-11-23T13:59:22.669Z,93516.13
2022-11-23T14:02:07.541Z,93500.56
2022-11-23T14:04:39.464Z,93504.56
2022-11-23T14:07:22.602Z,93507.19
2022-11-23T14:10:09.625Z,93512.47
2022-11-23T14:12:47.327Z,93518.78
2022-11-23T14:15:24.615Z,93520.75
2022-11-23T14:18:12.934Z,93511.78
2022-11-23T14:20:42.374Z,93502.13
2022-11-23T14:23:49.662Z,93514.06
2022-11-23T14:26:44.985Z,93507.78
2022-11-23T14:29:30.228Z,93527.41
2022-11-23T14:32:29.660Z,93517.97
2022-11-23T14:35:14.762Z,93521.69
2022-11-23T14:38:00.085Z,93525.69
2022-11-23T14:41:01.147Z,93519.63
2022-11-23T14:43:28.973Z,93526.22
2022-11-23T14:46:01.399Z,93528.88
2022-11-23T14:48:32.920Z,93522.56
2022-11-23T14:51:06.413Z,93514.06
2022-11-23T14:53:36.434Z,93520.59
2022-11-23T14:56:02.961Z,93525.69
2022-11-23T14:58:32.421Z,93533.34
2022-11-23T15:01:02.000Z,93530.94
2022-11-23T15:06:24.057Z,93529.19
2022-11-23T15:09:03.199Z,93526.84
2022-11-23T15:11:32.765Z,93521.53
2022-11-23T15:14:04.876Z,93524.97
2022-11-23T15:16:39.742Z,93527.75
2022-11-23T15:19:24.556Z,93536.69
2022-11-23T15:21:51.154Z,93535.34
2022-11-23T15:24:26.316Z,93535.41
2022-11-23T15:26:56.309Z,93528.31
2022-11-23T15:29:34.362Z,93530.69
2022-11-23T15:34:49.552Z,93535.97
2022-11-23T15:37:17.478Z,93534.31
2022-11-23T15:39:44.191Z,93533.97
2022-11-23T15:42:22.610Z,93531.34
2022-11-23T15:44:53.301Z,93520.28
2022-11-23T15:47:38.710Z,93535.09
2022-11-23T15:50:09.556Z,93539.25
2022-11-23T15:52:37.712Z,93535.25
2022-11-23T15:55:12.711Z,93532.94
2022-11-23T15:57:40.693Z,93535.44
2022-11-23T16:00:09.406Z,93537.06
2022-11-23T16:02:36.892Z,93533.44
2022-11-23T16:05:05.464Z,93528.81
2022-11-23T16:07:32.246Z,93525.78
2022-11-23T16:10:18.071Z,93522.03
2022-11-23T16:12:51.124Z,93521.47
2022-11-23T16:15:37.655Z,93527.94
2022-11-23T16:18:25.542Z,93524.34
2022-11-23T16:20:53.908Z,93526.97
2022-11-23T16:23:25.919Z,93526.22
2022-11-23T16:25:58.981Z,93524.53
2022-11-23T16:28:29.963Z,93517.94
2022-11-23T16:30:57.710Z,93522.84
2022-11-23T16:33:25.071Z,93524.84
2022-11-23T16:35:51.529Z,93518.00
2022-11-23T16:38:18.807Z,93512.09
2022-11-23T16:40:45.846Z,93509.47
2022-11-23T16:43:12.679Z,93516.88
2022-11-23T16:45:40.810Z,93516.88
2022-11-23T16:48:27.208Z,93510.16
2022-11-23T16:50:55.991Z,93501.44
2022-11-23T16:53:22.831Z,93500.09
2022-11-23T16:55:57.749Z,93500.00
2022-11-23T16:58:26.412Z,93504.44
2022-11-23T17:00:52.856Z,93493.00
2022-11-23T17:03:20.669Z,93504.19
2022-11-23T17:05:47.792Z,93500.47
2022-11-23T17:08:19.836Z,93506.03
2022-11-23T17:10:50.784Z,93504.53
2022-11-23T17:13:24.681Z,93509.00
2022-11-23T17:15:51.967Z,93504.78
2022-11-23T17:18:18.467Z,93500.09
2022-11-23T17:20:44.885Z,93482.09
2022-11-23T17:23:11.742Z,93498.31
2022-11-23T17:25:39.781Z,93511.81
2022-11-23T17:28:14.324Z,93501.50
2022-11-23T17:30:40.772Z,93518.41
2022-11-23T17:33:10.803Z,93506.28
2022-11-23T17:35:38.437Z,93526.03
2022-11-23T17:38:05.782Z,93527.81
2022-11-23T17:40:32.612Z,93536.72
2022-11-23T17:42:59.035Z,93532.25
2022-11-23T17:45:25.520Z,93540.78
2022-11-23T17:47:52.205Z,93542.53
2022-11-23T17:50:19.408Z,93548.34
2022-11-23T17:52:47.239Z,93546.88
2022-11-23T17:55:15.202Z,93550.09
2022-11-23T17:57:41.865Z,93545.03
2022-11-23T18:00:15.089Z,93545.28
2022-11-23T18:02:41.535Z,93555.25
2022-11-23T18:05:08.331Z,93549.34
2022-11-23T18:07:34.793Z,93554.59
2022-11-23T18:10:01.190Z,93558.50
2022-11-23T18:12:27.577Z,93557.31
2022-11-23T18:14:53.976Z,93561.34
2022-11-23T18:17:22.305Z,93570.13
2022-11-23T18:19:48.955Z,93572.03
2022-11-23T18:22:15.379Z,93563.91
2022-11-23T18:24:41.752Z,93562.47
2022-11-23T18:27:08.287Z,93587.13
2022-11-23T18:29:36.462Z,93575.97
2022-11-23T18:32:04.345Z,93594.22
2022-11-23T18:34:30.728Z,93603.38
2022-11-23T18:36:57.176Z,93589.31
2022-11-23T18:39:23.739Z,93598.66
2022-11-23T18:41:50.116Z,93602.38
2022-11-23T18:44:16.491Z,93634.50
2022-11-23T18:46:44.846Z,93637.59
2022-11-23T18:49:11.920Z,93636.22
2022-11-23T18:51:38.472Z,93640.22
2022-11-23T18:54:05.235Z,93651.66
2022-11-23T18:56:31.603Z,93695.38
2022-11-23T18:58:58.024Z,93672.91
2022-11-23T19:01:24.638Z,93694.16
2022-11-23T19:03:53.106Z,93693.59
2022-11-23T19:06:22.922Z,93697.38
2022-11-23T19:08:50.823Z,93699.06
2022-11-23T19:11:20.009Z,93697.72
2022-11-23T19:13:51.941Z,93710.94
2022-11-23T19:16:21.440Z,93733.31
2022-11-23T19:18:53.546Z,93726.69
2022-11-23T19:21:23.224Z,93737.69
2022-11-23T19:23:50.510Z,93759.34
2022-11-23T19:26:17.235Z,93772.16
2022-11-23T19:28:46.847Z,93762.72
2022-11-23T19:31:27.027Z,93764.56
2022-11-23T19:34:03.418Z,93785.06
2022-11-23T19:36:30.792Z,93783.91
2022-11-23T19:38:57.885Z,93788.59
2022-11-23T19:41:29.931Z,93791.69
2022-11-23T19:43:58.373Z,93795.22
2022-11-23T19:46:25.786Z,93805.59
2022-11-23T19:48:52.284Z,93810.41
2022-11-23T19:51:19.947Z,93816.44
2022-11-23T19:53:49.022Z,93828.44
2022-11-23T19:56:26.270Z,93839.50
2022-11-23T19:58:55.188Z,93839.63
2022-11-23T20:01:23.323Z,93850.03
2022-11-23T20:03:51.566Z,93849.34
2022-11-23T20:06:21.769Z,93838.59
2022-11-23T20:08:57.389Z,93865.78
2022-11-23T20:11:24.711Z,93850.47
2022-11-23T20:13:51.477Z,93850.41
2022-11-23T20:16:20.083Z,93845.06
2022-11-23T20:18:50.699Z,93862.00
2022-11-23T20:21:19.311Z,93870.22
2022-11-23T20:23:47.086Z,93880.28
2022-11-23T20:26:15.394Z,93887.88
2022-11-23T20:28:42.736Z,93888.50
2022-11-23T20:31:20.475Z,93907.91
2022-11-23T20:33:47.524Z,93906.78
2022-11-23T20:36:19.381Z,93887.34
2022-11-23T20:38:46.264Z,93910.78
2022-11-23T20:41:15.426Z,93897.81
2022-11-23T20:43:42.633Z,93910.75
2022-11-23T20:46:09.274Z,93899.91
2022-11-23T20:48:35.927Z,93913.72
2022-11-23T20:51:10.226Z,93921.06
2022-11-23T20:53:37.139Z,93918.06
2022-11-23T20:56:11.345Z,93926.00
2022-11-23T20:58:38.245Z,93918.97
2022-11-23T21:01:07.170Z,93922.88
2022-11-23T21:03:34.685Z,93911.41
2022-11-23T21:06:09.305Z,93914.50
2022-11-23T21:08:36.143Z,93934.41
2022-11-23T21:11:35.477Z,93934.03
2022-11-23T21:14:06.492Z,93942.50
2022-11-23T21:16:33.946Z,93944.91
2022-11-23T21:19:00.961Z,93957.00
2022-11-23T21:21:27.908Z,93958.31
2022-11-23T21:23:54.305Z,93970.91
2022-11-23T21:26:20.853Z,93973.16
2022-11-23T21:28:47.257Z,93979.59
2022-11-23T21:31:15.122Z,93972.97
2022-11-23T21:33:43.133Z,93986.63
2022-11-23T21:36:11.870Z,93987.31
2022-11-23T21:38:39.566Z,93996.25
2022-11-23T21:41:08.891Z,93996.13
2022-11-23T21:43:35.388Z,93996.53
2022-11-23T21:46:03.647Z,93998.31
2022-11-23T21:48:30.176Z,94010.78
2022-11-23T21:51:04.987Z,94023.09
2022-11-23T21:53:32.549Z,94016.38
2022-11-23T21:56:03.581Z,94016.88
2022-11-23T21:58:30.953Z,94019.41
2022-11-23T22:01:13.632Z,94019.38
2022-11-23T22:03:48.821Z,94022.13
2022-11-23T22:06:20.230Z,94020.59
2022-11-23T22:08:51.747Z,94036.09
2022-11-23T22:11:19.673Z,94030.69
2022-11-23T22:13:46.245Z,94051.13
2022-11-23T22:16:17.037Z,94050.19
2022-11-23T22:18:44.065Z,94047.31
2022-11-23T22:21:11.136Z,94054.47
2022-11-23T22:23:38.636Z,94061.25
2022-11-23T22:26:07.155Z,94057.94
2022-11-23T22:28:35.509Z,94057.31
2022-11-23T22:31:02.906Z,94065.69
2022-11-23T22:33:30.042Z,94057.22
2022-11-23T22:36:04.564Z,94067.13
2022-11-23T22:38:33.792Z,94074.06
2022-11-23T22:41:05.336Z,94060.44
2022-11-23T22:43:31.709Z,94056.13
2022-11-23T22:46:08.182Z,94070.66
2022-11-23T22:48:39.368Z,94069.09
2022-11-23T22:51:06.548Z,94063.88
2022-11-23T22:53:33.768Z,94062.84
2022-11-23T22:56:02.629Z,94078.69
2022-11-23T22:58:30.463Z,94056.84
2022-11-23T23:00:57.766Z,94077.22
2022-11-23T23:03:24.384Z,94091.13
2022-11-23T23:05:55.658Z,94096.72
2022-11-23T23:08:22.674Z,94097.53
2022-11-23T23:10:49.943Z,94112.13
2022-11-23T23:13:16.946Z,94108.69
2022-11-23T23:15:43.837Z,94120.44
2022-11-23T23:18:10.564Z,94111.19
2022-11-23T23:20:37.949Z,94125.16
2022-11-23T23:23:05.196Z,94126.00
2022-11-23T23:25:32.221Z,94115.09
2022-11-23T23:27:59.135Z,94121.22
2022-11-23T23:30:25.543Z,94135.22
2022-11-23T23:32:54.314Z,94145.44
2022-11-23T23:35:20.992Z,94143.63
2022-11-23T23:37:51.034Z,94144.41
2022-11-23T23:40:17.776Z,94141.00
2022-11-23T23:42:44.176Z,94153.59
2022-11-23T23:45:10.659Z,94150.19
2022-11-23T23:47:37.832Z,94143.97
2022-11-23T23:50:04.794Z,94153.84
2022-11-23T23:52:31.167Z,94159.88
2022-11-23T23:54:57.537Z,94149.50
2022-11-23T23:57:23.911Z,94142.72
2022-11-23T23:59:50.274Z,94162.41
